sensor_id;sensor_type;location;lat;lon;timestamp;P1;durP1;ratioP1;P2;durP2;ratioP2
17414;SDS011;8825;48.086;16.426;2022-12-07T00:01:24;6.13;;;5.53;;
17414;SDS011;8825;48.086;16.426;2022-12-07T00:03:54;5.30;;;4.80;;
17414;SDS011;8825;48.086;16.426;2022-12-07T00:06:26;5.70;;;5.10;;
17414;SDS011;8825;48.086;16.426;2022-12-07T00:08:53;6.20;;;5.33;;
17414;SDS011;8825;48.086;16.426;2022-12-07T00:11:21;5.77;;;5.27;;
17414;SDS011;8825;48.086;16.426;2022-12-07T00:13:53;5.90;;;5.33;;
17414;SDS011;8825;48.086;16.426;2022-12-07T00:16:23;6.00;;;5.40;;
17414;SDS011;8825;48.086;16.426;2022-12-07T00:18:52;5.00;;;4.50;;
17414;SDS011;8825;48.086;16.426;2022-12-07T00:21:22;4.70;;;4.30;;
17414;SDS011;8825;48.086;16.426;2022-12-07T00:23:51;4.63;;;4.13;;
17414;SDS011;8825;48.086;16.426;2022-12-07T00:26:24;4.63;;;4.13;;
17414;SDS011;8825;48.086;16.426;2022-12-07T00:29:02;4.13;;;3.77;;
17414;SDS011;8825;48.086;16.426;2022-12-07T00:31:28;4.77;;;4.30;;
17414;SDS011;8825;48.086;16.426;2022-12-07T00:33:57;4.60;;;4.20;;
17414;SDS011;8825;48.086;16.426;2022-12-07T00:36:25;3.87;;;3.57;;
17414;SDS011;8825;48.086;16.426;2022-12-07T00:38:53;3.80;;;3.50;;
17414;SDS011;8825;48.086;16.426;2022-12-07T00:41:22;4.23;;;3.83;;
17414;SDS011;8825;48.086;16.426;2022-12-07T00:43:52;4.67;;;4.27;;
17414;SDS011;8825;48.086;16.426;2022-12-07T00:46:20;4.90;;;4.50;;
17414;SDS011;8825;48.086;16.426;2022-12-07T00:48:48;5.07;;;4.60;;
17414;SDS011;8825;48.086;16.426;2022-12-07T00:51:18;5.40;;;4.90;;
17414;SDS011;8825;48.086;16.426;2022-12-07T00:53:46;5.17;;;4.67;;
17414;SDS011;8825;48.086;16.426;2022-12-07T00:56:16;5.30;;;4.80;;
17414;SDS011;8825;48.086;16.426;2022-12-07T00:59:19;5.50;;;5.00;;
17414;SDS011;8825;48.086;16.426;2022-12-07T01:01:25;5.77;;;5.27;;
17414;SDS011;8825;48.086;16.426;2022-12-07T01:03:54;5.53;;;5.03;;
17414;SDS011;8825;48.086;16.426;2022-12-07T01:06:22;5.07;;;4.63;;
17414;SDS011;8825;48.086;16.426;2022-12-07T01:08:51;5.80;;;5.30;;
17414;SDS011;8825;48.086;16.426;2022-12-07T01:11:19;6.70;;;6.10;;
17414;SDS011;8825;48.086;16.426;2022-12-07T01:13:50;6.60;;;5.90;;
17414;SDS011;8825;48.086;16.426;2022-12-07T01:16:19;6.37;;;5.77;;
17414;SDS011;8825;48.086;16.426;2022-12-07T01:18:49;6.43;;;5.83;;
17414;SDS011;8825;48.086;16.426;2022-12-07T01:21:19;6.33;;;5.80;;
17414;SDS011;8825;48.086;16.426;2022-12-07T01:23:48;6.13;;;5.53;;
17414;SDS011;8825;48.086;16.426;2022-12-07T01:26:18;6.23;;;5.63;;
17414;SDS011;8825;48.086;16.426;2022-12-07T01:28:47;5.77;;;5.27;;
17414;SDS011;8825;48.086;16.426;2022-12-07T01:31:16;5.87;;;5.37;;
17414;SDS011;8825;48.086;16.426;2022-12-07T01:33:47;5.70;;;5.20;;
17414;SDS011;8825;48.086;16.426;2022-12-07T01:36:17;5.60;;;5.10;;
17414;SDS011;8825;48.086;16.426;2022-12-07T01:38:47;6.20;;;5.60;;
17414;SDS011;8825;48.086;16.426;2022-12-07T01:41:20;5.23;;;4.73;;
17414;SDS011;8825;48.086;16.426;2022-12-07T01:46:50;6.13;;;5.53;;
17414;SDS011;8825;48.086;16.426;2022-12-07T01:49:34;6.07;;;5.47;;
17414;SDS011;8825;48.086;16.426;2022-12-07T01:52:20;6.10;;;5.50;;
17414;SDS011;8825;48.086;16.426;2022-12-07T01:55:01;6.43;;;5.83;;
17414;SDS011;8825;48.086;16.426;2022-12-07T01:57:26;7.20;;;6.53;;
17414;SDS011;8825;48.086;16.426;2022-12-07T01:59:54;7.50;;;6.80;;
17414;SDS011;8825;48.086;16.426;2022-12-07T02:02:27;7.43;;;6.73;;
17414;SDS011;8825;48.086;16.426;2022-12-07T02:04:57;7.10;;;6.40;;
17414;SDS011;8825;48.086;16.426;2022-12-07T02:07:26;7.37;;;6.67;;
17414;SDS011;8825;48.086;16.426;2022-12-07T02:09:55;8.30;;;7.50;;
17414;SDS011;8825;48.086;16.426;2022-12-07T02:12:23;8.67;;;7.87;;
17414;SDS011;8825;48.086;16.426;2022-12-07T02:14:51;8.47;;;7.67;;
17414;SDS011;8825;48.086;16.426;2022-12-07T02:17:21;9.27;;;8.43;;
17414;SDS011;8825;48.086;16.426;2022-12-07T02:30:47;10.47;;;8.80;;
17414;SDS011;8825;48.086;16.426;2022-12-07T02:33:18;9.63;;;8.67;;
17414;SDS011;8825;48.086;16.426;2022-12-07T02:38:28;8.97;;;8.07;;
17414;SDS011;8825;48.086;16.426;2022-12-07T02:43:58;9.37;;;8.47;;
17414;SDS011;8825;48.086;16.426;2022-12-07T02:46:25;9.27;;;8.47;;
17414;SDS011;8825;48.086;16.426;2022-12-07T02:49:00;9.00;;;8.10;;
17414;SDS011;8825;48.086;16.426;2022-12-07T02:51:32;8.80;;;8.00;;
17414;SDS011;8825;48.086;16.426;2022-12-07T02:54:00;8.67;;;7.77;;
17414;SDS011;8825;48.086;16.426;2022-12-07T02:56:35;7.70;;;7.00;;
17414;SDS011;8825;48.086;16.426;2022-12-07T03:04:49;8.53;;;7.67;;
17414;SDS011;8825;48.086;16.426;2022-12-07T03:07:18;8.77;;;7.87;;
17414;SDS011;8825;48.086;16.426;2022-12-07T03:12:39;8.30;;;7.50;;
17414;SDS011;8825;48.086;16.426;2022-12-07T03:15:13;8.20;;;7.40;;
17414;SDS011;8825;48.086;16.426;2022-12-07T03:17:43;8.10;;;7.30;;
17414;SDS011;8825;48.086;16.426;2022-12-07T03:20:14;9.10;;;8.17;;
17414;SDS011;8825;48.086;16.426;2022-12-07T03:22:44;8.67;;;7.77;;
17414;SDS011;8825;48.086;16.426;2022-12-07T03:25:14;8.67;;;7.80;;
17414;SDS011;8825;48.086;16.426;2022-12-07T03:27:44;7.63;;;6.83;;
17414;SDS011;8825;48.086;16.426;2022-12-07T03:30:23;8.43;;;7.63;;
17414;SDS011;8825;48.086;16.426;2022-12-07T03:32:54;8.57;;;7.67;;
17414;SDS011;8825;48.086;16.426;2022-12-07T03:35:27;9.27;;;8.13;;
17414;SDS011;8825;48.086;16.426;2022-12-07T03:38:05;7.60;;;6.77;;
17414;SDS011;8825;48.086;16.426;2022-12-07T03:40:34;7.57;;;6.87;;
17414;SDS011;8825;48.086;16.426;2022-12-07T03:43:03;8.50;;;7.60;;
17414;SDS011;8825;48.086;16.426;2022-12-07T03:45:39;7.43;;;6.73;;
17414;SDS011;8825;48.086;16.426;2022-12-07T03:48:15;8.20;;;7.40;;
17414;SDS011;8825;48.086;16.426;2022-12-07T03:50:48;8.13;;;7.33;;
17414;SDS011;8825;48.086;16.426;2022-12-07T03:53:20;7.80;;;7.10;;
17414;SDS011;8825;48.086;16.426;2022-12-07T03:55:52;7.07;;;6.37;;
17414;SDS011;8825;48.086;16.426;2022-12-07T03:58:22;7.73;;;7.03;;
17414;SDS011;8825;48.086;16.426;2022-12-07T04:00:50;7.30;;;6.60;;
17414;SDS011;8825;48.086;16.426;2022-12-07T04:03:19;7.23;;;6.53;;
17414;SDS011;8825;48.086;16.426;2022-12-07T04:05:46;7.40;;;6.70;;
17414;SDS011;8825;48.086;16.426;2022-12-07T04:08:14;7.13;;;6.43;;
17414;SDS011;8825;48.086;16.426;2022-12-07T04:10:42;7.93;;;6.67;;
17414;SDS011;8825;48.086;16.426;2022-12-07T04:13:09;7.43;;;6.73;;
17414;SDS011;8825;48.086;16.426;2022-12-07T04:15:37;6.90;;;6.20;;
17414;SDS011;8825;48.086;16.426;2022-12-07T04:18:04;7.27;;;6.57;;
17414;SDS011;8825;48.086;16.426;2022-12-07T04:20:32;7.37;;;6.63;;
17414;SDS011;8825;48.086;16.426;2022-12-07T04:22:59;7.07;;;6.37;;
17414;SDS011;8825;48.086;16.426;2022-12-07T04:25:27;6.67;;;5.97;;
17414;SDS011;8825;48.086;16.426;2022-12-07T04:27:54;7.23;;;6.50;;
17414;SDS011;8825;48.086;16.426;2022-12-07T04:30:22;6.77;;;6.07;;
17414;SDS011;8825;48.086;16.426;2022-12-07T04:32:49;7.07;;;6.37;;
17414;SDS011;8825;48.086;16.426;2022-12-07T04:35:17;6.57;;;5.90;;
17414;SDS011;8825;48.086;16.426;2022-12-07T04:37:44;7.23;;;6.53;;
17414;SDS011;8825;48.086;16.426;2022-12-07T04:40:12;7.47;;;6.77;;
17414;SDS011;8825;48.086;16.426;2022-12-07T04:42:40;7.00;;;6.30;;
17414;SDS011;8825;48.086;16.426;2022-12-07T04:45:07;7.73;;;6.93;;
17414;SDS011;8825;48.086;16.426;2022-12-07T04:47:35;7.00;;;6.30;;
17414;SDS011;8825;48.086;16.426;2022-12-07T04:50:03;6.77;;;5.70;;
17414;SDS011;8825;48.086;16.426;2022-12-07T04:52:31;6.33;;;5.73;;
17414;SDS011;8825;48.086;16.426;2022-12-07T04:54:59;6.47;;;5.87;;
17414;SDS011;8825;48.086;16.426;2022-12-07T04:57:26;6.90;;;6.20;;
17414;SDS011;8825;48.086;16.426;2022-12-07T04:59:54;6.03;;;5.40;;
17414;SDS011;8825;48.086;16.426;2022-12-07T05:02:21;6.90;;;6.30;;
17414;SDS011;8825;48.086;16.426;2022-12-07T05:04:49;6.63;;;5.83;;
17414;SDS011;8825;48.086;16.426;2022-12-07T05:07:16;6.77;;;5.70;;
17414;SDS011;8825;48.086;16.426;2022-12-07T05:09:44;6.50;;;5.90;;
17414;SDS011;8825;48.086;16.426;2022-12-07T05:12:11;6.23;;;5.63;;
17414;SDS011;8825;48.086;16.426;2022-12-07T05:14:39;6.90;;;6.20;;
17414;SDS011;8825;48.086;16.426;2022-12-07T05:17:06;6.30;;;5.63;;
17414;SDS011;8825;48.086;16.426;2022-12-07T05:19:34;6.80;;;6.10;;
17414;SDS011;8825;48.086;16.426;2022-12-07T05:22:01;7.53;;;6.70;;
17414;SDS011;8825;48.086;16.426;2022-12-07T05:24:29;7.07;;;6.37;;
17414;SDS011;8825;48.086;16.426;2022-12-07T05:26:56;8.00;;;7.20;;
17414;SDS011;8825;48.086;16.426;2022-12-07T05:29:24;7.93;;;7.13;;
17414;SDS011;8825;48.086;16.426;2022-12-07T05:31:51;7.07;;;6.37;;
17414;SDS011;8825;48.086;16.426;2022-12-07T05:34:19;8.93;;;6.93;;
17414;SDS011;8825;48.086;16.426;2022-12-07T05:36:46;7.40;;;6.70;;
17414;SDS011;8825;48.086;16.426;2022-12-07T05:39:14;7.57;;;6.77;;
17414;SDS011;8825;48.086;16.426;2022-12-07T05:41:42;7.43;;;6.23;;
17414;SDS011;8825;48.086;16.426;2022-12-07T05:44:28;8.27;;;6.80;;
17414;SDS011;8825;48.086;16.426;2022-12-07T05:46:55;7.57;;;6.33;;
17414;SDS011;8825;48.086;16.426;2022-12-07T05:49:23;7.33;;;6.53;;
17414;SDS011;8825;48.086;16.426;2022-12-07T05:51:50;6.70;;;6.00;;
17414;SDS011;8825;48.086;16.426;2022-12-07T05:54:18;6.83;;;6.10;;
17414;SDS011;8825;48.086;16.426;2022-12-07T05:56:45;6.47;;;5.60;;
17414;SDS011;8825;48.086;16.426;2022-12-07T05:59:13;7.23;;;6.03;;
17414;SDS011;8825;48.086;16.426;2022-12-07T06:01:54;6.33;;;5.73;;
17414;SDS011;8825;48.086;16.426;2022-12-07T06:04:26;7.03;;;6.33;;
17414;SDS011;8825;48.086;16.426;2022-12-07T06:06:55;6.10;;;5.50;;
17414;SDS011;8825;48.086;16.426;2022-12-07T06:09:24;8.43;;;6.67;;
17414;SDS011;8825;48.086;16.426;2022-12-07T06:11:52;8.10;;;6.80;;
17414;SDS011;8825;48.086;16.426;2022-12-07T06:14:39;6.77;;;5.87;;
17414;SDS011;8825;48.086;16.426;2022-12-07T06:17:07;7.03;;;6.07;;
17414;SDS011;8825;48.086;16.426;2022-12-07T06:19:35;6.37;;;5.47;;
17414;SDS011;8825;48.086;16.426;2022-12-07T06:22:02;6.27;;;5.30;;
17414;SDS011;8825;48.086;16.426;2022-12-07T06:24:33;6.57;;;5.43;;
17414;SDS011;8825;48.086;16.426;2022-12-07T06:27:01;5.60;;;5.00;;
17414;SDS011;8825;48.086;16.426;2022-12-07T06:29:28;5.83;;;5.00;;
17414;SDS011;8825;48.086;16.426;2022-12-07T06:31:56;5.80;;;4.70;;
17414;SDS011;8825;48.086;16.426;2022-12-07T06:34:24;5.00;;;4.50;;
17414;SDS011;8825;48.086;16.426;2022-12-07T06:36:53;5.70;;;4.70;;
17414;SDS011;8825;48.086;16.426;2022-12-07T06:39:22;5.80;;;4.80;;
17414;SDS011;8825;48.086;16.426;2022-12-07T06:41:53;5.00;;;4.40;;
17414;SDS011;8825;48.086;16.426;2022-12-07T06:44:21;5.40;;;4.70;;
17414;SDS011;8825;48.086;16.426;2022-12-07T06:46:50;5.67;;;5.07;;
17414;SDS011;8825;48.086;16.426;2022-12-07T06:49:18;4.73;;;4.33;;
17414;SDS011;8825;48.086;16.426;2022-12-07T06:51:46;5.30;;;4.13;;
17414;SDS011;8825;48.086;16.426;2022-12-07T06:54:14;5.20;;;4.70;;
17414;SDS011;8825;48.086;16.426;2022-12-07T06:56:42;5.83;;;5.00;;
17414;SDS011;8825;48.086;16.426;2022-12-07T06:59:10;4.70;;;4.20;;
17414;SDS011;8825;48.086;16.426;2022-12-07T07:01:37;5.57;;;4.83;;
17414;SDS011;8825;48.086;16.426;2022-12-07T07:04:05;4.87;;;4.33;;
17414;SDS011;8825;48.086;16.426;2022-12-07T07:06:32;4.93;;;4.43;;
17414;SDS011;8825;48.086;16.426;2022-12-07T07:09:00;5.03;;;4.53;;
17414;SDS011;8825;48.086;16.426;2022-12-07T07:11:28;5.20;;;4.40;;
17414;SDS011;8825;48.086;16.426;2022-12-07T07:13:55;5.53;;;4.60;;
17414;SDS011;8825;48.086;16.426;2022-12-07T07:16:24;4.80;;;4.27;;
17414;SDS011;8825;48.086;16.426;2022-12-07T07:18:52;4.53;;;4.13;;
17414;SDS011;8825;48.086;16.426;2022-12-07T07:21:19;4.67;;;4.17;;
17414;SDS011;8825;48.086;16.426;2022-12-07T07:23:47;4.93;;;4.10;;
17414;SDS011;8825;48.086;16.426;2022-12-07T07:26:14;5.50;;;4.43;;
17414;SDS011;8825;48.086;16.426;2022-12-07T07:28:42;5.90;;;5.03;;
17414;SDS011;8825;48.086;16.426;2022-12-07T07:31:10;5.63;;;4.20;;
17414;SDS011;8825;48.086;16.426;2022-12-07T07:33:37;4.53;;;3.90;;
17414;SDS011;8825;48.086;16.426;2022-12-07T07:36:05;4.37;;;3.97;;
17414;SDS011;8825;48.086;16.426;2022-12-07T07:38:33;4.53;;;4.10;;
17414;SDS011;8825;48.086;16.426;2022-12-07T07:41:00;4.47;;;4.07;;
17414;SDS011;8825;48.086;16.426;2022-12-07T07:43:28;4.20;;;3.80;;
17414;SDS011;8825;48.086;16.426;2022-12-07T07:45:55;4.33;;;3.93;;
17414;SDS011;8825;48.086;16.426;2022-12-07T07:48:23;5.07;;;4.23;;
17414;SDS011;8825;48.086;16.426;2022-12-07T07:50:51;4.40;;;4.00;;
17414;SDS011;8825;48.086;16.426;2022-12-07T07:53:19;4.23;;;3.83;;
17414;SDS011;8825;48.086;16.426;2022-12-07T07:55:50;4.07;;;3.77;;
17414;SDS011;8825;48.086;16.426;2022-12-07T07:58:19;4.30;;;3.90;;
17414;SDS011;8825;48.086;16.426;2022-12-07T08:00:47;4.80;;;4.10;;
17414;SDS011;8825;48.086;16.426;2022-12-07T08:03:14;4.00;;;3.60;;
17414;SDS011;8825;48.086;16.426;2022-12-07T08:05:42;4.03;;;3.63;;
17414;SDS011;8825;48.086;16.426;2022-12-07T08:08:09;4.10;;;3.70;;
17414;SDS011;8825;48.086;16.426;2022-12-07T08:10:37;4.60;;;4.00;;
17414;SDS011;8825;48.086;16.426;2022-12-07T08:13:05;4.20;;;3.53;;
17414;SDS011;8825;48.086;16.426;2022-12-07T08:15:46;4.53;;;4.00;;
17414;SDS011;8825;48.086;16.426;2022-12-07T08:18:14;4.07;;;3.70;;
17414;SDS011;8825;48.086;16.426;2022-12-07T08:20:42;4.37;;;3.97;;
17414;SDS011;8825;48.086;16.426;2022-12-07T08:23:10;4.60;;;4.20;;
17414;SDS011;8825;48.086;16.426;2022-12-07T08:25:37;4.40;;;3.93;;
17414;SDS011;8825;48.086;16.426;2022-12-07T08:28:05;3.63;;;3.33;;
17414;SDS011;8825;48.086;16.426;2022-12-07T08:30:33;4.27;;;3.87;;
17414;SDS011;8825;48.086;16.426;2022-12-07T08:33:01;4.60;;;4.20;;
17414;SDS011;8825;48.086;16.426;2022-12-07T08:35:28;4.50;;;4.10;;
17414;SDS011;8825;48.086;16.426;2022-12-07T08:37:56;4.30;;;3.93;;
17414;SDS011;8825;48.086;16.426;2022-12-07T08:40:23;4.37;;;3.97;;
17414;SDS011;8825;48.086;16.426;2022-12-07T08:42:51;4.23;;;3.83;;
17414;SDS011;8825;48.086;16.426;2022-12-07T08:45:20;4.20;;;3.90;;
17414;SDS011;8825;48.086;16.426;2022-12-07T08:47:52;3.73;;;3.43;;
17414;SDS011;8825;48.086;16.426;2022-12-07T08:50:24;4.60;;;3.33;;
17414;SDS011;8825;48.086;16.426;2022-12-07T08:52:53;3.87;;;3.50;;
17414;SDS011;8825;48.086;16.426;2022-12-07T08:55:23;4.17;;;3.77;;
17414;SDS011;8825;48.086;16.426;2022-12-07T08:57:51;4.50;;;3.43;;
17414;SDS011;8825;48.086;16.426;2022-12-07T09:00:19;4.00;;;3.70;;
17414;SDS011;8825;48.086;16.426;2022-12-07T09:02:46;4.10;;;3.80;;
17414;SDS011;8825;48.086;16.426;2022-12-07T09:05:14;4.03;;;3.73;;
17414;SDS011;8825;48.086;16.426;2022-12-07T09:07:46;3.83;;;3.53;;
17414;SDS011;8825;48.086;16.426;2022-12-07T09:10:16;3.93;;;3.50;;
17414;SDS011;8825;48.086;16.426;2022-12-07T09:12:44;3.47;;;3.17;;
17414;SDS011;8825;48.086;16.426;2022-12-07T09:15:11;3.67;;;3.37;;
17414;SDS011;8825;48.086;16.426;2022-12-07T09:17:39;3.03;;;2.73;;
17414;SDS011;8825;48.086;16.426;2022-12-07T09:20:07;3.40;;;3.10;;
17414;SDS011;8825;48.086;16.426;2022-12-07T09:22:34;3.90;;;3.57;;
17414;SDS011;8825;48.086;16.426;2022-12-07T09:25:02;3.87;;;3.57;;
17414;SDS011;8825;48.086;16.426;2022-12-07T09:27:30;3.77;;;3.47;;
17414;SDS011;8825;48.086;16.426;2022-12-07T09:29:58;3.60;;;3.30;;
17414;SDS011;8825;48.086;16.426;2022-12-07T09:32:25;3.67;;;3.37;;
17414;SDS011;8825;48.086;16.426;2022-12-07T09:34:53;3.47;;;3.17;;
17414;SDS011;8825;48.086;16.426;2022-12-07T09:37:20;3.60;;;3.30;;
17414;SDS011;8825;48.086;16.426;2022-12-07T09:39:48;3.30;;;3.00;;
17414;SDS011;8825;48.086;16.426;2022-12-07T09:42:29;3.87;;;3.57;;
17414;SDS011;8825;48.086;16.426;2022-12-07T09:45:02;3.63;;;3.33;;
17414;SDS011;8825;48.086;16.426;2022-12-07T09:47:32;3.60;;;3.30;;
17414;SDS011;8825;48.086;16.426;2022-12-07T09:50:04;4.17;;;3.80;;
17414;SDS011;8825;48.086;16.426;2022-12-07T09:52:33;4.20;;;3.80;;
17414;SDS011;8825;48.086;16.426;2022-12-07T09:55:02;4.63;;;4.33;;
17414;SDS011;8825;48.086;16.426;2022-12-07T09:57:32;4.07;;;3.73;;
17414;SDS011;8825;48.086;16.426;2022-12-07T10:00:04;4.10;;;3.70;;
17414;SDS011;8825;48.086;16.426;2022-12-07T10:02:34;3.50;;;3.20;;
17414;SDS011;8825;48.086;16.426;2022-12-07T10:05:05;4.23;;;3.90;;
17414;SDS011;8825;48.086;16.426;2022-12-07T10:07:34;3.80;;;3.50;;
17414;SDS011;8825;48.086;16.426;2022-12-07T10:10:03;3.60;;;3.30;;
17414;SDS011;8825;48.086;16.426;2022-12-07T10:12:52;4.23;;;3.87;;
17414;SDS011;8825;48.086;16.426;2022-12-07T10:15:21;3.73;;;3.43;;
17414;SDS011;8825;48.086;16.426;2022-12-07T10:17:54;4.10;;;3.57;;
17414;SDS011;8825;48.086;16.426;2022-12-07T10:20:26;4.10;;;3.27;;
17414;SDS011;8825;48.086;16.426;2022-12-07T10:25:35;3.83;;;3.53;;
17414;SDS011;8825;48.086;16.426;2022-12-07T10:33:34;3.30;;;3.00;;
17414;SDS011;8825;48.086;16.426;2022-12-07T10:36:22;3.13;;;2.93;;
17414;SDS011;8825;48.086;16.426;2022-12-07T10:38:52;4.10;;;3.70;;
17414;SDS011;8825;48.086;16.426;2022-12-07T10:41:21;3.97;;;3.60;;
17414;SDS011;8825;48.086;16.426;2022-12-07T10:43:50;4.60;;;3.77;;
17414;SDS011;8825;48.086;16.426;2022-12-07T10:46:23;3.70;;;3.40;;
17414;SDS011;8825;48.086;16.426;2022-12-07T10:52:05;4.10;;;3.80;;
17414;SDS011;8825;48.086;16.426;2022-12-07T10:57:25;4.27;;;3.87;;
17414;SDS011;8825;48.086;16.426;2022-12-07T10:59:53;4.30;;;4.00;;
17414;SDS011;8825;48.086;16.426;2022-12-07T11:05:26;3.90;;;3.60;;
17414;SDS011;8825;48.086;16.426;2022-12-07T11:08:00;5.07;;;4.07;;
17414;SDS011;8825;48.086;16.426;2022-12-07T11:10:37;4.00;;;3.60;;
17414;SDS011;8825;48.086;16.426;2022-12-07T11:13:14;4.43;;;3.40;;
17414;SDS011;8825;48.086;16.426;2022-12-07T11:37:43;4.93;;;4.43;;
17414;SDS011;8825;48.086;16.426;2022-12-07T11:42:49;4.20;;;3.90;;
17414;SDS011;8825;48.086;16.426;2022-12-07T11:45:32;4.70;;;4.30;;
17414;SDS011;8825;48.086;16.426;2022-12-07T11:48:03;4.30;;;3.93;;
17414;SDS011;8825;48.086;16.426;2022-12-07T11:50:37;4.40;;;4.00;;
17414;SDS011;8825;48.086;16.426;2022-12-07T11:53:20;4.57;;;4.17;;
17414;SDS011;8825;48.086;16.426;2022-12-07T11:58:42;4.03;;;3.73;;
17414;SDS011;8825;48.086;16.426;2022-12-07T12:04:32;4.63;;;4.23;;
17414;SDS011;8825;48.086;16.426;2022-12-07T12:07:01;4.40;;;4.00;;
17414;SDS011;8825;48.086;16.426;2022-12-07T12:09:31;4.13;;;3.77;;
17414;SDS011;8825;48.086;16.426;2022-12-07T12:17:26;4.40;;;4.00;;
17414;SDS011;8825;48.086;16.426;2022-12-07T12:20:00;4.53;;;4.17;;
17414;SDS011;8825;48.086;16.426;2022-12-07T12:22:43;4.93;;;4.53;;
17414;SDS011;8825;48.086;16.426;2022-12-07T12:25:18;4.20;;;3.80;;
17414;SDS011;8825;48.086;16.426;2022-12-07T12:27:42;5.53;;;5.03;;
17414;SDS011;8825;48.086;16.426;2022-12-07T12:30:33;4.87;;;4.47;;
17414;SDS011;8825;48.086;16.426;2022-12-07T12:33:06;4.83;;;4.43;;
17414;SDS011;8825;48.086;16.426;2022-12-07T12:35:40;4.50;;;4.10;;
17414;SDS011;8825;48.086;16.426;2022-12-07T12:38:29;4.10;;;3.80;;
17414;SDS011;8825;48.086;16.426;2022-12-07T12:40:59;4.03;;;3.67;;
17414;SDS011;8825;48.086;16.426;2022-12-07T12:43:48;4.63;;;4.17;;
17414;SDS011;8825;48.086;16.426;2022-12-07T12:51:47;4.10;;;3.80;;
17414;SDS011;8825;48.086;16.426;2022-12-07T12:54:34;4.43;;;4.03;;
17414;SDS011;8825;48.086;16.426;2022-12-07T12:57:12;4.97;;;4.00;;
17414;SDS011;8825;48.086;16.426;2022-12-07T13:02:22;3.83;;;3.43;;
17414;SDS011;8825;48.086;16.426;2022-12-07T13:04:59;3.80;;;3.50;;
17414;SDS011;8825;48.086;16.426;2022-12-07T13:15:51;4.17;;;3.23;;
17414;SDS011;8825;48.086;16.426;2022-12-07T13:21:00;3.10;;;2.80;;
17414;SDS011;8825;48.086;16.426;2022-12-07T13:28:47;4.07;;;3.67;;
17414;SDS011;8825;48.086;16.426;2022-12-07T13:31:30;4.27;;;3.90;;
17414;SDS011;8825;48.086;16.426;2022-12-07T13:34:00;4.40;;;4.00;;
17414;SDS011;8825;48.086;16.426;2022-12-07T13:36:30;4.60;;;4.20;;
17414;SDS011;8825;48.086;16.426;2022-12-07T13:41:50;4.13;;;3.80;;
17414;SDS011;8825;48.086;16.426;2022-12-07T13:44:19;3.80;;;3.50;;
17414;SDS011;8825;48.086;16.426;2022-12-07T13:46:57;4.10;;;3.80;;
17414;SDS011;8825;48.086;16.426;2022-12-07T13:49:30;4.03;;;3.70;;
17414;SDS011;8825;48.086;16.426;2022-12-07T13:54:56;3.53;;;3.23;;
17414;SDS011;8825;48.086;16.426;2022-12-07T13:57:17;4.10;;;3.70;;
17414;SDS011;8825;48.086;16.426;2022-12-07T13:59:45;4.00;;;3.70;;
17414;SDS011;8825;48.086;16.426;2022-12-07T14:02:20;3.93;;;3.57;;
17414;SDS011;8825;48.086;16.426;2022-12-07T14:05:05;5.00;;;4.50;;
17414;SDS011;8825;48.086;16.426;2022-12-07T14:07:48;5.00;;;4.50;;
17414;SDS011;8825;48.086;16.426;2022-12-07T14:12:53;4.90;;;4.47;;
17414;SDS011;8825;48.086;16.426;2022-12-07T14:15:22;4.43;;;4.03;;
17414;SDS011;8825;48.086;16.426;2022-12-07T14:17:53;4.20;;;3.80;;
17414;SDS011;8825;48.086;16.426;2022-12-07T14:20:34;4.27;;;3.93;;
17414;SDS011;8825;48.086;16.426;2022-12-07T14:23:04;4.23;;;3.87;;
17414;SDS011;8825;48.086;16.426;2022-12-07T14:25:49;4.57;;;3.97;;
17414;SDS011;8825;48.086;16.426;2022-12-07T14:28:25;4.40;;;4.00;;
17414;SDS011;8825;48.086;16.426;2022-12-07T14:30:55;4.57;;;4.17;;
17414;SDS011;8825;48.086;16.426;2022-12-07T14:33:22;4.10;;;3.70;;
17414;SDS011;8825;48.086;16.426;2022-12-07T14:35:51;4.47;;;3.90;;
17414;SDS011;8825;48.086;16.426;2022-12-07T14:38:20;4.63;;;4.23;;
17414;SDS011;8825;48.086;16.426;2022-12-07T14:40:48;3.83;;;3.43;;
17414;SDS011;8825;48.086;16.426;2022-12-07T14:43:16;3.80;;;3.50;;
17414;SDS011;8825;48.086;16.426;2022-12-07T14:45:45;4.40;;;4.00;;
17414;SDS011;8825;48.086;16.426;2022-12-07T14:48:13;4.37;;;3.97;;
17414;SDS011;8825;48.086;16.426;2022-12-07T14:50:43;3.80;;;3.50;;
17414;SDS011;8825;48.086;16.426;2022-12-07T14:53:13;3.80;;;3.50;;
17414;SDS011;8825;48.086;16.426;2022-12-07T14:55:43;3.77;;;3.47;;
17414;SDS011;8825;48.086;16.426;2022-12-07T14:58:13;3.73;;;3.43;;
17414;SDS011;8825;48.086;16.426;2022-12-07T15:00:42;4.10;;;3.70;;
17414;SDS011;8825;48.086;16.426;2022-12-07T15:03:10;3.80;;;3.50;;
17414;SDS011;8825;48.086;16.426;2022-12-07T15:05:38;3.97;;;3.60;;
17414;SDS011;8825;48.086;16.426;2022-12-07T15:08:08;4.27;;;3.87;;
17414;SDS011;8825;48.086;16.426;2022-12-07T15:10:37;4.13;;;3.73;;
17414;SDS011;8825;48.086;16.426;2022-12-07T15:13:06;4.20;;;3.83;;
17414;SDS011;8825;48.086;16.426;2022-12-07T15:15:52;4.60;;;4.20;;
17414;SDS011;8825;48.086;16.426;2022-12-07T15:18:21;5.60;;;5.10;;
17414;SDS011;8825;48.086;16.426;2022-12-07T15:20:50;5.67;;;5.17;;
17414;SDS011;8825;48.086;16.426;2022-12-07T15:23:18;5.50;;;5.00;;
17414;SDS011;8825;48.086;16.426;2022-12-07T15:25:46;5.37;;;4.87;;
17414;SDS011;8825;48.086;16.426;2022-12-07T15:28:15;6.13;;;5.53;;
17414;SDS011;8825;48.086;16.426;2022-12-07T15:30:43;5.67;;;5.10;;
17414;SDS011;8825;48.086;16.426;2022-12-07T15:33:12;5.70;;;5.10;;
17414;SDS011;8825;48.086;16.426;2022-12-07T15:35:40;5.80;;;5.20;;
17414;SDS011;8825;48.086;16.426;2022-12-07T15:38:10;5.20;;;4.70;;
17414;SDS011;8825;48.086;16.426;2022-12-07T15:40:40;5.47;;;4.97;;
17414;SDS011;8825;48.086;16.426;2022-12-07T15:43:09;5.17;;;4.67;;
17414;SDS011;8825;48.086;16.426;2022-12-07T15:45:38;4.93;;;4.47;;
17414;SDS011;8825;48.086;16.426;2022-12-07T15:48:06;5.83;;;5.23;;
17414;SDS011;8825;48.086;16.426;2022-12-07T15:50:33;4.67;;;4.27;;
17414;SDS011;8825;48.086;16.426;2022-12-07T15:53:02;4.90;;;4.50;;
17414;SDS011;8825;48.086;16.426;2022-12-07T15:55:29;5.53;;;4.73;;
17414;SDS011;8825;48.086;16.426;2022-12-07T15:57:57;5.80;;;4.53;;
17414;SDS011;8825;48.086;16.426;2022-12-07T16:00:28;5.00;;;4.50;;
17414;SDS011;8825;48.086;16.426;2022-12-07T16:02:55;4.90;;;4.37;;
17414;SDS011;8825;48.086;16.426;2022-12-07T16:05:23;5.33;;;4.83;;
17414;SDS011;8825;48.086;16.426;2022-12-07T16:07:51;8.73;;;7.27;;
17414;SDS011;8825;48.086;16.426;2022-12-07T16:10:20;35.80;;;27.67;;
17414;SDS011;8825;48.086;16.426;2022-12-07T16:12:47;41.17;;;32.17;;
17414;SDS011;8825;48.086;16.426;2022-12-07T16:15:15;37.27;;;29.87;;
17414;SDS011;8825;48.086;16.426;2022-12-07T16:17:42;26.80;;;22.77;;
17414;SDS011;8825;48.086;16.426;2022-12-07T16:20:10;21.13;;;17.07;;
17414;SDS011;8825;48.086;16.426;2022-12-07T16:22:37;17.87;;;14.97;;
17414;SDS011;8825;48.086;16.426;2022-12-07T16:25:05;13.17;;;11.27;;
17414;SDS011;8825;48.086;16.426;2022-12-07T16:27:33;10.30;;;9.20;;
17414;SDS011;8825;48.086;16.426;2022-12-07T16:30:01;8.67;;;7.77;;
17414;SDS011;8825;48.086;16.426;2022-12-07T16:32:29;8.57;;;7.20;;
17414;SDS011;8825;48.086;16.426;2022-12-07T16:34:57;6.93;;;6.27;;
17414;SDS011;8825;48.086;16.426;2022-12-07T16:37:24;5.70;;;5.20;;
17414;SDS011;8825;48.086;16.426;2022-12-07T16:39:52;5.57;;;5.07;;
17414;SDS011;8825;48.086;16.426;2022-12-07T16:42:19;5.73;;;5.23;;
17414;SDS011;8825;48.086;16.426;2022-12-07T16:44:47;5.90;;;5.30;;
17414;SDS011;8825;48.086;16.426;2022-12-07T16:47:14;5.40;;;4.90;;
17414;SDS011;8825;48.086;16.426;2022-12-07T16:49:42;5.07;;;4.57;;
17414;SDS011;8825;48.086;16.426;2022-12-07T16:52:10;5.73;;;5.13;;
17414;SDS011;8825;48.086;16.426;2022-12-07T16:54:37;5.30;;;4.80;;
17414;SDS011;8825;48.086;16.426;2022-12-07T16:57:05;5.03;;;4.57;;
17414;SDS011;8825;48.086;16.426;2022-12-07T16:59:32;5.50;;;5.00;;